Sao Joao da Serra, Brazil
Current Conditions -  °F | °C
As of 11:00 PM on Friday 21 Nov 2014 (Local Time) from SBTE Reporting Station
Clear Clear  
Wind Chill: 82°   Ceiling: Unl
Heat Index: 87°   Visibility: 6mi
Dew Point: 72°   Wind: 8mph
Humidity: 70%   Direction: 350°N
Pressure: 29.83"   Gusts: NA
Location:  5.51°S, 41.9°W
Report Text: SBTE 220200Z 35007KT CAVOK 28/22 Q1010
Loading
Personal Weather Stations






























Interactive Weather Map New forecast layout! Learn more

10-Day Weather Forecast

Advertisements
Track Severe Weather on mobile